Aviation Digital Data Service (ADDS)

Output produced by METARs form (2249 UTC 19 April 2021)
found at http://aviationweather.gov/metar/data/
 
METAR text: KARR 192152Z 23013G19KT 10SM OVC048 07/03 A2990 RMK AO2 SLP129 T00720028
Conditions at: KARR (CHICAGO/AURORA , IL, US) observed 2152 UTC 19 April 2021
Temperature: 7.2°C (45°F)
Dewpoint: 2.8°C (37°F) [RH = 74%]
Pressure (altimeter): 29.90 inches Hg (1012.6 mb)
[Sea-level pressure: 1012.9 mb]
Winds: from the SW (230 degrees) at 15 MPH (13 knots; 6.7 m/s)
gusting to 22 MPH (19 knots; 9.8 m/s)
Visibility: 10 or more miles (16+ km)
Ceiling: 4800 feet AGL
Clouds: overcast cloud deck at 4800 feet AGL
Weather: no significant weather observed at this time